sensor_id;sensor_type;location;lat;lon;timestamp;temperature;humidity
4249;DHT22;8404;48.752;12.922;2022-07-01T00:02:09;20.50;83.00
4249;DHT22;8404;48.752;12.922;2022-07-01T00:04:44;20.40;83.20
4249;DHT22;8404;48.752;12.922;2022-07-01T00:07:31;20.40;83.40
4249;DHT22;8404;48.752;12.922;2022-07-01T00:09:59;20.40;83.50
4249;DHT22;8404;48.752;12.922;2022-07-01T00:12:29;20.30;83.70
4249;DHT22;8404;48.752;12.922;2022-07-01T00:14:58;20.30;84.20
4249;DHT22;8404;48.752;12.922;2022-07-01T00:17:26;20.30;84.30
4249;DHT22;8404;48.752;12.922;2022-07-01T00:19:54;20.30;84.00
4249;DHT22;8404;48.752;12.922;2022-07-01T00:22:23;20.30;84.20
4249;DHT22;8404;48.752;12.922;2022-07-01T00:24:51;20.30;84.30
4249;DHT22;8404;48.752;12.922;2022-07-01T00:27:20;20.30;84.70
4249;DHT22;8404;48.752;12.922;2022-07-01T00:29:50;20.30;84.70
4249;DHT22;8404;48.752;12.922;2022-07-01T00:32:18;20.30;84.40
4249;DHT22;8404;48.752;12.922;2022-07-01T00:34:46;20.40;84.50
4249;DHT22;8404;48.752;12.922;2022-07-01T00:37:15;20.40;84.80
4249;DHT22;8404;48.752;12.922;2022-07-01T00:39:43;20.40;84.60
4249;DHT22;8404;48.752;12.922;2022-07-01T00:42:11;20.40;84.70
4249;DHT22;8404;48.752;12.922;2022-07-01T00:44:40;20.40;84.70
4249;DHT22;8404;48.752;12.922;2022-07-01T00:47:11;20.40;84.60
4249;DHT22;8404;48.752;12.922;2022-07-01T00:49:40;20.40;84.90
4249;DHT22;8404;48.752;12.922;2022-07-01T00:52:10;20.30;84.90
4249;DHT22;8404;48.752;12.922;2022-07-01T00:54:38;20.30;84.90
4249;DHT22;8404;48.752;12.922;2022-07-01T00:57:08;20.30;85.60
4249;DHT22;8404;48.752;12.922;2022-07-01T00:59:37;20.30;85.20
4249;DHT22;8404;48.752;12.922;2022-07-01T01:02:09;20.30;85.20
4249;DHT22;8404;48.752;12.922;2022-07-01T01:04:38;20.40;85.60
4249;DHT22;8404;48.752;12.922;2022-07-01T01:07:07;20.30;85.10
4249;DHT22;8404;48.752;12.922;2022-07-01T01:09:36;20.40;84.80
4249;DHT22;8404;48.752;12.922;2022-07-01T01:12:04;20.40;85.10
4249;DHT22;8404;48.752;12.922;2022-07-01T01:14:43;20.40;84.90
4249;DHT22;8404;48.752;12.922;2022-07-01T01:17:13;20.50;84.60
4249;DHT22;8404;48.752;12.922;2022-07-01T01:19:42;20.50;84.50
4249;DHT22;8404;48.752;12.922;2022-07-01T01:22:14;20.50;84.60
4249;DHT22;8404;48.752;12.922;2022-07-01T01:24:44;20.50;83.60
4249;DHT22;8404;48.752;12.922;2022-07-01T01:27:12;20.50;83.60
4249;DHT22;8404;48.752;12.922;2022-07-01T01:29:41;20.50;84.10
4249;DHT22;8404;48.752;12.922;2022-07-01T01:32:10;20.40;84.00
4249;DHT22;8404;48.752;12.922;2022-07-01T01:34:38;20.40;84.20
4249;DHT22;8404;48.752;12.922;2022-07-01T01:37:08;20.30;84.20
4249;DHT22;8404;48.752;12.922;2022-07-01T01:39:38;20.30;84.40
4249;DHT22;8404;48.752;12.922;2022-07-01T01:42:07;20.30;84.70
4249;DHT22;8404;48.752;12.922;2022-07-01T01:44:35;20.30;84.80
4249;DHT22;8404;48.752;12.922;2022-07-01T01:47:04;20.30;85.00
4249;DHT22;8404;48.752;12.922;2022-07-01T01:49:33;20.30;84.70
4249;DHT22;8404;48.752;12.922;2022-07-01T01:52:02;20.30;84.60
4249;DHT22;8404;48.752;12.922;2022-07-01T01:54:31;20.30;84.40
4249;DHT22;8404;48.752;12.922;2022-07-01T01:57:00;20.30;84.20
4249;DHT22;8404;48.752;12.922;2022-07-01T01:59:29;20.40;84.20
4249;DHT22;8404;48.752;12.922;2022-07-01T02:01:57;20.40;83.70
4249;DHT22;8404;48.752;12.922;2022-07-01T02:04:26;20.40;83.20
4249;DHT22;8404;48.752;12.922;2022-07-01T02:06:54;20.40;82.80
4249;DHT22;8404;48.752;12.922;2022-07-01T02:09:24;20.40;82.70
4249;DHT22;8404;48.752;12.922;2022-07-01T02:11:52;20.50;81.60
4249;DHT22;8404;48.752;12.922;2022-07-01T02:14:22;20.60;80.60
4249;DHT22;8404;48.752;12.922;2022-07-01T02:16:51;20.50;81.20
4249;DHT22;8404;48.752;12.922;2022-07-01T02:19:19;20.50;81.80
4249;DHT22;8404;48.752;12.922;2022-07-01T02:21:48;20.50;81.90
4249;DHT22;8404;48.752;12.922;2022-07-01T02:24:18;20.40;82.20
4249;DHT22;8404;48.752;12.922;2022-07-01T02:26:46;20.30;82.00
4249;DHT22;8404;48.752;12.922;2022-07-01T02:29:15;20.30;82.20
4249;DHT22;8404;48.752;12.922;2022-07-01T02:31:45;20.20;82.90
4249;DHT22;8404;48.752;12.922;2022-07-01T02:34:13;20.20;83.40
4249;DHT22;8404;48.752;12.922;2022-07-01T02:36:42;20.20;83.00
4249;DHT22;8404;48.752;12.922;2022-07-01T02:39:10;20.40;81.90
4249;DHT22;8404;48.752;12.922;2022-07-01T02:41:38;20.40;80.80
4249;DHT22;8404;48.752;12.922;2022-07-01T02:44:20;20.40;79.30
4249;DHT22;8404;48.752;12.922;2022-07-01T02:46:50;20.30;78.40
4249;DHT22;8404;48.752;12.922;2022-07-01T02:49:18;20.20;78.10
4249;DHT22;8404;48.752;12.922;2022-07-01T02:51:47;20.20;77.00
4249;DHT22;8404;48.752;12.922;2022-07-01T02:54:15;20.20;77.00
4249;DHT22;8404;48.752;12.922;2022-07-01T02:56:44;20.10;76.20
4249;DHT22;8404;48.752;12.922;2022-07-01T02:59:13;20.00;76.60
4249;DHT22;8404;48.752;12.922;2022-07-01T03:01:41;20.00;75.70
4249;DHT22;8404;48.752;12.922;2022-07-01T03:04:11;20.00;75.90
4249;DHT22;8404;48.752;12.922;2022-07-01T03:06:39;19.90;76.20
4249;DHT22;8404;48.752;12.922;2022-07-01T03:09:08;20.00;75.90
4249;DHT22;8404;48.752;12.922;2022-07-01T03:11:36;20.00;75.60
4249;DHT22;8404;48.752;12.922;2022-07-01T03:14:05;20.00;75.10
4249;DHT22;8404;48.752;12.922;2022-07-01T03:16:33;19.90;74.70
4249;DHT22;8404;48.752;12.922;2022-07-01T03:19:01;20.00;74.10
4249;DHT22;8404;48.752;12.922;2022-07-01T03:21:31;20.00;73.80
4249;DHT22;8404;48.752;12.922;2022-07-01T03:24:00;20.10;73.90
4249;DHT22;8404;48.752;12.922;2022-07-01T03:26:28;20.10;73.50
4249;DHT22;8404;48.752;12.922;2022-07-01T03:29:04;20.20;72.50
4249;DHT22;8404;48.752;12.922;2022-07-01T03:31:32;20.20;72.10
4249;DHT22;8404;48.752;12.922;2022-07-01T03:34:01;20.20;72.20
4249;DHT22;8404;48.752;12.922;2022-07-01T03:36:30;20.10;71.80
4249;DHT22;8404;48.752;12.922;2022-07-01T03:38:59;20.20;72.30
4249;DHT22;8404;48.752;12.922;2022-07-01T03:41:28;20.20;71.70
4249;DHT22;8404;48.752;12.922;2022-07-01T03:43:56;20.20;71.70
4249;DHT22;8404;48.752;12.922;2022-07-01T03:46:24;20.20;71.80
4249;DHT22;8404;48.752;12.922;2022-07-01T03:48:53;20.20;71.40
4249;DHT22;8404;48.752;12.922;2022-07-01T03:51:21;20.10;71.90
4249;DHT22;8404;48.752;12.922;2022-07-01T03:53:51;20.10;71.90
4249;DHT22;8404;48.752;12.922;2022-07-01T03:56:36;20.20;71.60
4249;DHT22;8404;48.752;12.922;2022-07-01T03:59:05;20.10;71.90
4249;DHT22;8404;48.752;12.922;2022-07-01T04:01:34;20.10;72.00
4249;DHT22;8404;48.752;12.922;2022-07-01T04:04:02;20.10;71.70
4249;DHT22;8404;48.752;12.922;2022-07-01T04:06:31;20.00;71.50
4249;DHT22;8404;48.752;12.922;2022-07-01T04:09:03;20.00;71.10
4249;DHT22;8404;48.752;12.922;2022-07-01T04:11:32;20.00;71.20
4249;DHT22;8404;48.752;12.922;2022-07-01T04:14:00;20.00;71.00
4249;DHT22;8404;48.752;12.922;2022-07-01T04:16:30;20.00;71.10
4249;DHT22;8404;48.752;12.922;2022-07-01T04:18:58;20.00;72.00
4249;DHT22;8404;48.752;12.922;2022-07-01T04:21:27;20.00;71.10
4249;DHT22;8404;48.752;12.922;2022-07-01T04:24:14;20.00;71.10
4249;DHT22;8404;48.752;12.922;2022-07-01T04:26:43;19.90;71.30
4249;DHT22;8404;48.752;12.922;2022-07-01T04:29:12;19.90;71.60
4249;DHT22;8404;48.752;12.922;2022-07-01T04:31:40;19.90;71.30
4249;DHT22;8404;48.752;12.922;2022-07-01T04:34:09;20.00;71.40
4249;DHT22;8404;48.752;12.922;2022-07-01T04:36:38;19.90;71.30
4249;DHT22;8404;48.752;12.922;2022-07-01T04:39:07;20.00;71.70
4249;DHT22;8404;48.752;12.922;2022-07-01T04:41:37;20.00;71.80
4249;DHT22;8404;48.752;12.922;2022-07-01T04:44:23;19.90;71.80
4249;DHT22;8404;48.752;12.922;2022-07-01T04:46:52;20.00;71.60
4249;DHT22;8404;48.752;12.922;2022-07-01T04:49:20;20.00;71.60
4249;DHT22;8404;48.752;12.922;2022-07-01T04:51:48;20.00;71.10
4249;DHT22;8404;48.752;12.922;2022-07-01T04:54:17;20.00;71.10
4249;DHT22;8404;48.752;12.922;2022-07-01T04:56:47;20.00;71.90
4249;DHT22;8404;48.752;12.922;2022-07-01T04:59:15;20.00;71.10
4249;DHT22;8404;48.752;12.922;2022-07-01T05:01:44;20.10;71.30
4249;DHT22;8404;48.752;12.922;2022-07-01T05:04:16;20.00;71.30
4249;DHT22;8404;48.752;12.922;2022-07-01T05:06:45;20.00;71.10
4249;DHT22;8404;48.752;12.922;2022-07-01T05:09:14;20.00;71.50
4249;DHT22;8404;48.752;12.922;2022-07-01T05:11:42;20.00;71.40
4249;DHT22;8404;48.752;12.922;2022-07-01T05:14:12;20.10;71.50
4249;DHT22;8404;48.752;12.922;2022-07-01T05:16:40;20.00;71.50
4249;DHT22;8404;48.752;12.922;2022-07-01T05:19:09;20.00;71.10
4249;DHT22;8404;48.752;12.922;2022-07-01T05:21:54;20.00;71.20
4249;DHT22;8404;48.752;12.922;2022-07-01T05:24:31;20.10;70.60
4249;DHT22;8404;48.752;12.922;2022-07-01T05:27:01;20.10;71.10
4249;DHT22;8404;48.752;12.922;2022-07-01T05:29:31;20.10;71.40
4249;DHT22;8404;48.752;12.922;2022-07-01T05:32:00;20.10;71.60
4249;DHT22;8404;48.752;12.922;2022-07-01T05:34:28;20.10;71.00
4249;DHT22;8404;48.752;12.922;2022-07-01T05:36:57;20.10;70.20
4249;DHT22;8404;48.752;12.922;2022-07-01T05:39:25;20.10;70.70
4249;DHT22;8404;48.752;12.922;2022-07-01T05:41:53;20.10;71.20
4249;DHT22;8404;48.752;12.922;2022-07-01T05:44:22;20.10;70.30
4249;DHT22;8404;48.752;12.922;2022-07-01T05:46:52;20.00;70.70
4249;DHT22;8404;48.752;12.922;2022-07-01T05:49:20;20.10;71.40
4249;DHT22;8404;48.752;12.922;2022-07-01T05:51:48;20.10;71.20
4249;DHT22;8404;48.752;12.922;2022-07-01T05:54:17;20.20;71.10
4249;DHT22;8404;48.752;12.922;2022-07-01T05:56:45;20.20;70.60
4249;DHT22;8404;48.752;12.922;2022-07-01T05:59:14;20.30;70.50
4249;DHT22;8404;48.752;12.922;2022-07-01T06:01:42;20.30;70.10
4249;DHT22;8404;48.752;12.922;2022-07-01T06:04:12;20.40;70.00
4249;DHT22;8404;48.752;12.922;2022-07-01T06:06:41;20.50;69.30
4249;DHT22;8404;48.752;12.922;2022-07-01T06:09:09;20.50;69.50
4249;DHT22;8404;48.752;12.922;2022-07-01T06:11:37;20.50;69.70
4249;DHT22;8404;48.752;12.922;2022-07-01T06:14:06;20.50;69.50
4249;DHT22;8404;48.752;12.922;2022-07-01T06:16:34;20.60;70.00
4249;DHT22;8404;48.752;12.922;2022-07-01T06:19:03;20.70;69.20
4249;DHT22;8404;48.752;12.922;2022-07-01T06:21:34;20.80;69.60
4249;DHT22;8404;48.752;12.922;2022-07-01T06:24:03;20.80;68.90
4249;DHT22;8404;48.752;12.922;2022-07-01T06:26:32;20.80;68.30
4249;DHT22;8404;48.752;12.922;2022-07-01T06:29:00;20.70;69.30
4249;DHT22;8404;48.752;12.922;2022-07-01T06:31:28;20.60;69.50
4249;DHT22;8404;48.752;12.922;2022-07-01T06:33:57;20.60;68.90
4249;DHT22;8404;48.752;12.922;2022-07-01T06:36:25;20.60;69.30
4249;DHT22;8404;48.752;12.922;2022-07-01T06:38:55;20.60;68.40
4249;DHT22;8404;48.752;12.922;2022-07-01T06:41:23;20.60;69.20
4249;DHT22;8404;48.752;12.922;2022-07-01T06:43:55;20.60;70.30
4249;DHT22;8404;48.752;12.922;2022-07-01T06:46:24;20.80;69.60
4249;DHT22;8404;48.752;12.922;2022-07-01T06:48:53;20.90;68.90
4249;DHT22;8404;48.752;12.922;2022-07-01T06:51:22;21.10;69.40
4249;DHT22;8404;48.752;12.922;2022-07-01T06:53:50;21.30;68.10
4249;DHT22;8404;48.752;12.922;2022-07-01T06:56:20;21.40;68.20
4249;DHT22;8404;48.752;12.922;2022-07-01T06:58:49;21.40;67.40
4249;DHT22;8404;48.752;12.922;2022-07-01T07:01:17;21.50;66.90
4249;DHT22;8404;48.752;12.922;2022-07-01T07:03:46;21.60;67.70
4249;DHT22;8404;48.752;12.922;2022-07-01T07:06:14;21.60;66.40
4249;DHT22;8404;48.752;12.922;2022-07-01T07:08:43;21.60;66.20
4249;DHT22;8404;48.752;12.922;2022-07-01T07:11:11;21.50;66.60
4249;DHT22;8404;48.752;12.922;2022-07-01T07:13:43;21.40;65.90
4249;DHT22;8404;48.752;12.922;2022-07-01T07:16:12;21.30;66.20
4249;DHT22;8404;48.752;12.922;2022-07-01T07:18:40;21.30;65.50
4249;DHT22;8404;48.752;12.922;2022-07-01T07:21:08;21.20;65.80
4249;DHT22;8404;48.752;12.922;2022-07-01T07:23:37;21.10;67.20
4249;DHT22;8404;48.752;12.922;2022-07-01T07:26:05;21.10;66.80
4249;DHT22;8404;48.752;12.922;2022-07-01T07:28:34;21.10;67.30
4249;DHT22;8404;48.752;12.922;2022-07-01T07:31:04;21.00;67.20
4249;DHT22;8404;48.752;12.922;2022-07-01T07:33:32;21.10;66.50
4249;DHT22;8404;48.752;12.922;2022-07-01T07:36:01;21.00;67.20
4249;DHT22;8404;48.752;12.922;2022-07-01T07:38:29;21.10;67.00
4249;DHT22;8404;48.752;12.922;2022-07-01T07:40:58;21.10;67.00
4249;DHT22;8404;48.752;12.922;2022-07-01T07:43:28;21.10;67.40
4249;DHT22;8404;48.752;12.922;2022-07-01T07:45:56;21.10;66.50
4249;DHT22;8404;48.752;12.922;2022-07-01T07:48:26;21.10;66.80
4249;DHT22;8404;48.752;12.922;2022-07-01T07:50:54;21.00;67.60
4249;DHT22;8404;48.752;12.922;2022-07-01T07:53:23;20.90;68.20
4249;DHT22;8404;48.752;12.922;2022-07-01T07:55:52;21.00;67.90
4249;DHT22;8404;48.752;12.922;2022-07-01T07:58:20;20.90;67.20
4249;DHT22;8404;48.752;12.922;2022-07-01T08:00:49;20.70;67.50
4249;DHT22;8404;48.752;12.922;2022-07-01T08:03:17;20.70;68.60
4249;DHT22;8404;48.752;12.922;2022-07-01T08:05:47;20.70;68.20
4249;DHT22;8404;48.752;12.922;2022-07-01T08:08:15;20.60;68.70
4249;DHT22;8404;48.752;12.922;2022-07-01T08:10:49;20.70;68.20
4249;DHT22;8404;48.752;12.922;2022-07-01T08:13:17;20.70;69.40
4249;DHT22;8404;48.752;12.922;2022-07-01T08:15:46;20.80;68.70
4249;DHT22;8404;48.752;12.922;2022-07-01T08:18:14;20.90;68.50
4249;DHT22;8404;48.752;12.922;2022-07-01T08:20:42;21.00;68.70
4249;DHT22;8404;48.752;12.922;2022-07-01T08:23:13;21.20;69.00
4249;DHT22;8404;48.752;12.922;2022-07-01T08:25:41;21.30;69.70
4249;DHT22;8404;48.752;12.922;2022-07-01T08:28:10;21.50;68.30
4249;DHT22;8404;48.752;12.922;2022-07-01T08:30:38;21.50;68.60
4249;DHT22;8404;48.752;12.922;2022-07-01T08:33:07;21.50;67.30
4249;DHT22;8404;48.752;12.922;2022-07-01T08:35:35;21.50;67.10
4249;DHT22;8404;48.752;12.922;2022-07-01T08:38:04;21.50;67.50
4249;DHT22;8404;48.752;12.922;2022-07-01T08:40:35;21.50;67.80
4249;DHT22;8404;48.752;12.922;2022-07-01T08:43:05;21.50;67.10
4249;DHT22;8404;48.752;12.922;2022-07-01T08:45:35;21.50;65.80
4249;DHT22;8404;48.752;12.922;2022-07-01T08:48:05;21.50;66.20
4249;DHT22;8404;48.752;12.922;2022-07-01T08:50:35;21.50;66.40
4249;DHT22;8404;48.752;12.922;2022-07-01T08:53:04;21.40;66.40
4249;DHT22;8404;48.752;12.922;2022-07-01T08:55:33;21.40;67.20
4249;DHT22;8404;48.752;12.922;2022-07-01T08:58:25;21.30;68.50
4249;DHT22;8404;48.752;12.922;2022-07-01T09:01:12;21.20;67.10
4249;DHT22;8404;48.752;12.922;2022-07-01T09:03:41;21.50;68.70
4249;DHT22;8404;48.752;12.922;2022-07-01T09:06:14;21.80;65.60
4249;DHT22;8404;48.752;12.922;2022-07-01T09:08:44;21.80;65.40
4249;DHT22;8404;48.752;12.922;2022-07-01T09:11:15;21.80;67.00
4249;DHT22;8404;48.752;12.922;2022-07-01T09:13:45;22.00;65.20
4249;DHT22;8404;48.752;12.922;2022-07-01T09:16:39;22.00;66.20
4249;DHT22;8404;48.752;12.922;2022-07-01T09:19:09;22.10;65.10
4249;DHT22;8404;48.752;12.922;2022-07-01T09:21:37;22.10;65.70
4249;DHT22;8404;48.752;12.922;2022-07-01T09:24:23;22.00;66.90
4249;DHT22;8404;48.752;12.922;2022-07-01T09:26:53;22.20;64.90
4249;DHT22;8404;48.752;12.922;2022-07-01T09:29:28;22.20;65.40
4249;DHT22;8404;48.752;12.922;2022-07-01T09:31:58;22.20;65.50
4249;DHT22;8404;48.752;12.922;2022-07-01T09:34:32;22.20;64.00
4249;DHT22;8404;48.752;12.922;2022-07-01T09:37:02;22.10;64.20
4249;DHT22;8404;48.752;12.922;2022-07-01T09:39:32;21.90;65.10
4249;DHT22;8404;48.752;12.922;2022-07-01T09:42:09;21.80;65.50
4249;DHT22;8404;48.752;12.922;2022-07-01T09:44:51;21.90;66.00
4249;DHT22;8404;48.752;12.922;2022-07-01T09:47:27;22.00;65.20
4249;DHT22;8404;48.752;12.922;2022-07-01T09:49:56;22.00;65.50
4249;DHT22;8404;48.752;12.922;2022-07-01T09:52:25;22.00;65.70
4249;DHT22;8404;48.752;12.922;2022-07-01T09:55:02;21.80;65.20
4249;DHT22;8404;48.752;12.922;2022-07-01T09:57:30;21.90;66.00
4249;DHT22;8404;48.752;12.922;2022-07-01T10:00:01;21.80;65.60
4249;DHT22;8404;48.752;12.922;2022-07-01T10:02:33;22.00;65.30
4249;DHT22;8404;48.752;12.922;2022-07-01T10:05:06;22.00;65.30
4249;DHT22;8404;48.752;12.922;2022-07-01T10:07:42;22.10;65.00
4249;DHT22;8404;48.752;12.922;2022-07-01T10:10:23;22.10;65.00
4249;DHT22;8404;48.752;12.922;2022-07-01T10:12:56;21.80;64.70
4249;DHT22;8404;48.752;12.922;2022-07-01T10:15:27;21.80;64.40
4249;DHT22;8404;48.752;12.922;2022-07-01T10:17:56;21.80;64.40
4249;DHT22;8404;48.752;12.922;2022-07-01T10:20:25;21.60;64.90
4249;DHT22;8404;48.752;12.922;2022-07-01T10:23:00;21.40;65.20
4249;DHT22;8404;48.752;12.922;2022-07-01T10:25:40;21.30;65.30
4249;DHT22;8404;48.752;12.922;2022-07-01T10:28:24;21.20;66.00
4249;DHT22;8404;48.752;12.922;2022-07-01T10:30:56;21.10;65.90
4249;DHT22;8404;48.752;12.922;2022-07-01T10:33:35;21.10;65.80
4249;DHT22;8404;48.752;12.922;2022-07-01T10:36:15;21.00;66.00
4249;DHT22;8404;48.752;12.922;2022-07-01T10:39:16;21.00;66.50
4249;DHT22;8404;48.752;12.922;2022-07-01T10:42:02;20.90;67.30
4249;DHT22;8404;48.752;12.922;2022-07-01T10:45:06;20.60;66.80
4249;DHT22;8404;48.752;12.922;2022-07-01T10:47:38;20.50;69.00
4249;DHT22;8404;48.752;12.922;2022-07-01T10:50:08;20.50;69.10
4249;DHT22;8404;48.752;12.922;2022-07-01T10:52:37;20.60;68.80
4249;DHT22;8404;48.752;12.922;2022-07-01T10:55:07;20.50;69.20
4249;DHT22;8404;48.752;12.922;2022-07-01T10:57:40;20.50;68.70
4249;DHT22;8404;48.752;12.922;2022-07-01T11:00:29;20.40;68.40
4249;DHT22;8404;48.752;12.922;2022-07-01T11:03:08;20.20;68.90
4249;DHT22;8404;48.752;12.922;2022-07-01T11:05:37;20.00;69.70
4249;DHT22;8404;48.752;12.922;2022-07-01T11:08:07;19.90;69.30
4249;DHT22;8404;48.752;12.922;2022-07-01T11:10:39;19.80;70.00
4249;DHT22;8404;48.752;12.922;2022-07-01T11:13:08;20.00;69.90
4249;DHT22;8404;48.752;12.922;2022-07-01T11:15:41;20.10;68.30
4249;DHT22;8404;48.752;12.922;2022-07-01T11:18:13;20.00;68.70
4249;DHT22;8404;48.752;12.922;2022-07-01T11:20:41;20.00;69.00
4249;DHT22;8404;48.752;12.922;2022-07-01T11:23:10;20.10;69.40
4249;DHT22;8404;48.752;12.922;2022-07-01T11:25:39;20.10;70.00
4249;DHT22;8404;48.752;12.922;2022-07-01T11:28:10;20.10;69.60
4249;DHT22;8404;48.752;12.922;2022-07-01T11:30:39;20.20;69.80
4249;DHT22;8404;48.752;12.922;2022-07-01T11:33:08;20.20;68.40
4249;DHT22;8404;48.752;12.922;2022-07-01T11:35:39;20.10;68.10
4249;DHT22;8404;48.752;12.922;2022-07-01T11:38:25;20.00;68.80
4249;DHT22;8404;48.752;12.922;2022-07-01T11:41:18;19.90;70.10
4249;DHT22;8404;48.752;12.922;2022-07-01T11:43:47;20.00;68.40
4249;DHT22;8404;48.752;12.922;2022-07-01T11:46:16;20.00;68.20
4249;DHT22;8404;48.752;12.922;2022-07-01T11:48:47;20.00;68.30
4249;DHT22;8404;48.752;12.922;2022-07-01T11:51:20;20.00;68.20
4249;DHT22;8404;48.752;12.922;2022-07-01T11:53:50;19.90;68.60
4249;DHT22;8404;48.752;12.922;2022-07-01T11:56:28;19.90;68.90
4249;DHT22;8404;48.752;12.922;2022-07-01T11:58:57;19.90;68.70
4249;DHT22;8404;48.752;12.922;2022-07-01T12:01:28;19.90;68.40
4249;DHT22;8404;48.752;12.922;2022-07-01T12:03:58;19.90;67.60
4249;DHT22;8404;48.752;12.922;2022-07-01T12:06:30;19.90;69.20
4249;DHT22;8404;48.752;12.922;2022-07-01T12:08:59;20.00;69.00
4249;DHT22;8404;48.752;12.922;2022-07-01T12:11:28;20.10;67.90
4249;DHT22;8404;48.752;12.922;2022-07-01T12:14:04;20.00;67.70
4249;DHT22;8404;48.752;12.922;2022-07-01T12:16:38;20.00;67.70
4249;DHT22;8404;48.752;12.922;2022-07-01T12:19:07;19.90;66.70
4249;DHT22;8404;48.752;12.922;2022-07-01T12:21:49;19.90;66.80
4249;DHT22;8404;48.752;12.922;2022-07-01T12:24:19;19.90;67.50
4249;DHT22;8404;48.752;12.922;2022-07-01T12:26:51;20.00;66.90
4249;DHT22;8404;48.752;12.922;2022-07-01T12:29:22;20.00;67.20
4249;DHT22;8404;48.752;12.922;2022-07-01T12:31:55;19.90;67.00
4249;DHT22;8404;48.752;12.922;2022-07-01T12:34:36;19.80;68.60
4249;DHT22;8404;48.752;12.922;2022-07-01T12:37:10;19.60;66.50
4249;DHT22;8404;48.752;12.922;2022-07-01T12:39:44;19.60;68.00
4249;DHT22;8404;48.752;12.922;2022-07-01T12:42:20;19.50;67.70
4249;DHT22;8404;48.752;12.922;2022-07-01T12:44:49;19.40;67.90
4249;DHT22;8404;48.752;12.922;2022-07-01T12:47:20;19.30;68.10
4249;DHT22;8404;48.752;12.922;2022-07-01T12:49:48;19.20;67.50
4249;DHT22;8404;48.752;12.922;2022-07-01T12:52:25;19.10;68.30
4249;DHT22;8404;48.752;12.922;2022-07-01T12:54:56;19.00;68.20
4249;DHT22;8404;48.752;12.922;2022-07-01T12:57:31;19.00;68.70
4249;DHT22;8404;48.752;12.922;2022-07-01T13:00:06;18.90;69.90
4249;DHT22;8404;48.752;12.922;2022-07-01T13:02:34;18.80;69.00
4249;DHT22;8404;48.752;12.922;2022-07-01T13:05:03;18.80;68.80
4249;DHT22;8404;48.752;12.922;2022-07-01T13:07:32;18.80;68.70
4249;DHT22;8404;48.752;12.922;2022-07-01T13:10:01;18.70;68.60
4249;DHT22;8404;48.752;12.922;2022-07-01T13:12:30;18.60;69.20
4249;DHT22;8404;48.752;12.922;2022-07-01T13:14:59;18.50;68.30
4249;DHT22;8404;48.752;12.922;2022-07-01T13:17:27;18.50;67.50
4249;DHT22;8404;48.752;12.922;2022-07-01T13:20:01;18.40;67.30
4249;DHT22;8404;48.752;12.922;2022-07-01T13:22:32;18.30;67.80
4249;DHT22;8404;48.752;12.922;2022-07-01T13:25:00;18.30;67.80
4249;DHT22;8404;48.752;12.922;2022-07-01T13:27:29;18.20;68.60
4249;DHT22;8404;48.752;12.922;2022-07-01T13:29:57;18.20;68.80
4249;DHT22;8404;48.752;12.922;2022-07-01T13:32:26;18.10;68.80
4249;DHT22;8404;48.752;12.922;2022-07-01T13:34:54;18.10;68.60
4249;DHT22;8404;48.752;12.922;2022-07-01T13:37:23;18.00;69.60
4249;DHT22;8404;48.752;12.922;2022-07-01T13:39:53;17.90;69.70
4249;DHT22;8404;48.752;12.922;2022-07-01T13:42:21;17.70;70.10
4249;DHT22;8404;48.752;12.922;2022-07-01T13:44:49;17.60;70.90
4249;DHT22;8404;48.752;12.922;2022-07-01T13:47:18;17.40;71.40
4249;DHT22;8404;48.752;12.922;2022-07-01T13:49:46;17.30;72.80
4249;DHT22;8404;48.752;12.922;2022-07-01T13:52:15;17.20;74.60
4249;DHT22;8404;48.752;12.922;2022-07-01T13:54:43;17.00;78.70
4249;DHT22;8404;48.752;12.922;2022-07-01T13:57:13;16.60;82.30
4249;DHT22;8404;48.752;12.922;2022-07-01T13:59:42;16.20;83.00
4249;DHT22;8404;48.752;12.922;2022-07-01T14:02:11;16.00;83.90
4249;DHT22;8404;48.752;12.922;2022-07-01T14:04:39;15.80;87.20
4249;DHT22;8404;48.752;12.922;2022-07-01T14:07:07;15.70;86.10
4249;DHT22;8404;48.752;12.922;2022-07-01T14:09:36;15.60;88.60
4249;DHT22;8404;48.752;12.922;2022-07-01T14:12:06;15.60;86.90
4249;DHT22;8404;48.752;12.922;2022-07-01T14:14:41;15.60;86.80
4249;DHT22;8404;48.752;12.922;2022-07-01T14:17:09;15.70;86.00
4249;DHT22;8404;48.752;12.922;2022-07-01T14:19:38;15.70;86.50
4249;DHT22;8404;48.752;12.922;2022-07-01T14:22:07;15.60;87.90
4249;DHT22;8404;48.752;12.922;2022-07-01T14:24:35;15.40;89.70
4249;DHT22;8404;48.752;12.922;2022-07-01T14:27:04;15.40;88.00
4249;DHT22;8404;48.752;12.922;2022-07-01T14:29:33;15.40;87.20
4249;DHT22;8404;48.752;12.922;2022-07-01T14:32:03;15.20;89.00
4249;DHT22;8404;48.752;12.922;2022-07-01T14:34:32;15.00;90.40
4249;DHT22;8404;48.752;12.922;2022-07-01T14:37:00;14.90;90.80
4249;DHT22;8404;48.752;12.922;2022-07-01T14:39:28;14.90;90.90
4249;DHT22;8404;48.752;12.922;2022-07-01T14:41:57;14.90;91.30
4249;DHT22;8404;48.752;12.922;2022-07-01T14:44:25;14.90;91.30
4249;DHT22;8404;48.752;12.922;2022-07-01T14:46:53;14.90;91.00
4249;DHT22;8404;48.752;12.922;2022-07-01T14:49:23;14.90;91.30
4249;DHT22;8404;48.752;12.922;2022-07-01T14:51:51;15.00;90.90
4249;DHT22;8404;48.752;12.922;2022-07-01T14:54:20;14.90;91.40
4249;DHT22;8404;48.752;12.922;2022-07-01T14:56:48;14.90;91.80
4249;DHT22;8404;48.752;12.922;2022-07-01T14:59:17;14.90;92.00
4249;DHT22;8404;48.752;12.922;2022-07-01T15:01:45;14.90;92.10
4249;DHT22;8404;48.752;12.922;2022-07-01T15:04:13;15.00;92.10
4249;DHT22;8404;48.752;12.922;2022-07-01T15:06:43;15.20;91.50
4249;DHT22;8404;48.752;12.922;2022-07-01T15:09:11;15.30;91.10
4249;DHT22;8404;48.752;12.922;2022-07-01T15:11:40;15.40;91.40
4249;DHT22;8404;48.752;12.922;2022-07-01T15:14:08;15.30;92.20
4249;DHT22;8404;48.752;12.922;2022-07-01T15:16:37;15.30;91.20
4249;DHT22;8404;48.752;12.922;2022-07-01T15:19:05;15.30;91.50
4249;DHT22;8404;48.752;12.922;2022-07-01T15:21:34;15.30;91.70
4249;DHT22;8404;48.752;12.922;2022-07-01T15:24:05;15.30;91.40
4249;DHT22;8404;48.752;12.922;2022-07-01T15:26:34;15.20;91.50
4249;DHT22;8404;48.752;12.922;2022-07-01T15:29:02;15.30;91.40
4249;DHT22;8404;48.752;12.922;2022-07-01T15:31:30;15.30;91.60
4249;DHT22;8404;48.752;12.922;2022-07-01T15:34:16;15.30;91.20
4249;DHT22;8404;48.752;12.922;2022-07-01T15:36:45;15.20;91.10
4249;DHT22;8404;48.752;12.922;2022-07-01T15:39:15;15.30;90.60
4249;DHT22;8404;48.752;12.922;2022-07-01T15:41:44;15.30;90.00
4249;DHT22;8404;48.752;12.922;2022-07-01T15:44:13;15.30;89.70
4249;DHT22;8404;48.752;12.922;2022-07-01T15:46:42;15.20;90.30
4249;DHT22;8404;48.752;12.922;2022-07-01T15:49:10;15.20;90.60
4249;DHT22;8404;48.752;12.922;2022-07-01T15:51:39;15.20;90.60
4249;DHT22;8404;48.752;12.922;2022-07-01T15:54:08;15.10;90.70
4249;DHT22;8404;48.752;12.922;2022-07-01T15:56:39;15.20;90.10
4249;DHT22;8404;48.752;12.922;2022-07-01T15:59:08;15.10;90.40
4249;DHT22;8404;48.752;12.922;2022-07-01T16:01:36;15.20;90.30
4249;DHT22;8404;48.752;12.922;2022-07-01T16:04:05;15.10;90.60
4249;DHT22;8404;48.752;12.922;2022-07-01T16:06:34;15.20;90.90